메인 페이지
METAR-TAF:

METAR-TAF

공항 :

위니펙, 매니토바, 캐나다

위도: 49-54N, 경도: 097-14W, 고도: 239m

현재 날씨관측

예보는 50분 전, 01:14시(UTC)에 발표되었습니다.
9kt
온도 8°C
습도 87%
기압 1012 hPa
시정: 24.1km
고도 1300ft 상공 흐림

METAR: CYWG 250114Z 35009KT 15SM OVC013 08/06 A2989 RMK SC8 CIG RAG SLP132

시각: 21:04 (02:04 UTC)

예보

예보는 2 시간 26분 전, 23:38시(UTC)에 발표되었습니다.
예보 대상 시간: 25일 00시부터 25일 24시까지 (UTC)
북서6kt
시정: 10km
고도 800ft 상공 구름 조금
고도 1500ft 상공 흐림
일시적
25일 00시부터 25일 03시까지 (UTC)
고도 1500ft 상공 구름 보통
고도 2500ft 상공 흐림
25일 0300시부터 (UTC)
8kt
시정: 10km
고도 600ft 상공 구름 보통
고도 1200ft 상공 흐림
일시적
25일 03시부터 25일 06시까지 (UTC)
시정: 6.4km
고도 600ft 상공 흐림
약한소나기, 박무
25일 0600시부터 (UTC)
8kt
시정: 4.8km
고도 600ft 상공 흐림
약한이슬비, 박무
일시적
25일 06시부터 25일 18시까지 (UTC)
시정: 10km
고도 1000ft 상공 흐림
25일 1800시부터 (UTC)
서북서8kt
시정: 10km
고도 1200ft 상공 구름 많음
고도 3000ft 상공 흐림

TAF: CYWG 242338Z 2500/2524 31006KT P6SM FEW008 OVC015 TEMPO 2500/2503 SCT015 OVC025 FM250300 26008KT P6SM SCT006 OVC012 TEMPO 2503/2506 4SM -SHRA BR OVC006 FM250600 28008KT 3SM -DZ BR OVC006 TEMPO 2506/2518 P6SM NSW OVC010 FM251800 30008KT P6SM BKN012 OVC030 RMK NXT FCST BY 250600Z

4,000개 이상의 공항 관측 자료 및 예보 (METAR 및 TAF 보고).

지도상에서 검색 가능한 기상관측소가 노란 점과 빨간 점으로 표시되어 있습니다.

기상관측소 명을 보려면 표시 위로 마우스를 이동하세요.

날씨 관측과 예보를 보려면 클릭하세요.

지도 변경 : 확대하려면 엑스 표시가 있는 녹색 버튼, 축소하려면 빼기 표시가 있는 녹색 버튼, 다음 페이지의 지도를 보려면 녹색 화살표를 클릭하세요.


METAR-TAF: